SBCR/CMG METAR and TAF weather

Enter ICAO airport designator
Station Type Date Time Source
SBCR METAR 2019/04/21 22:00 UTC NOAA

SBCR 212200Z 10005KT 9999 FEW030 FEW035TCU 29/26 Q1006


Station Type Date Time Source
SBCR Decoded METAR 2019/04/21 22:00 UTC NOAA

Corumba, Brazil (SBCR) 19-05S 057-30W
Apr 21, 2019 - 06:00 PM EDT / 2019.04.21 2200 UTC
Wind: from the E (100 degrees) at 6 MPH (5 KT):0
Visibility: greater than 7 mile(s):0
Sky conditions: mostly clear
Weather: Towering cumulus clouds observed
Temperature: 84 F (29 C)
Dew Point: 78 F (26 C)
Relative Humidity: 83%
Pressure (altimeter): 29.71 in. Hg (1006 hPa)
ob: SBCR 212200Z 10005KT 9999 FEW030 FEW035TCU 29/26 Q1006
cycle: 22

Station Type Date Time Source
SBCR TAF 2019/04/21 18:44 UTC NOAA

TAF SBCR 211530Z 2118/2218 03006KT 9999 SCT030 FEW035TCU TX33/2118Z T N24/2209Z
BECMG 2120/2122 11006KT SCT035
BECMG 2206/2208 8000 TSRA BKN020 FEW0 30CB
RMK PEB

Example: see airport list